createdAt,value
2017-01-12T00:00:26.850Z,1001.03
2017-01-12T00:01:07.336Z,1000.97
2017-01-12T00:01:47.909Z,1001.01
2017-01-12T00:02:28.424Z,1001.08
2017-01-12T00:03:09.008Z,1001.1
2017-01-12T00:03:49.538Z,1001.07
2017-01-12T00:04:30.092Z,1001.11
2017-01-12T00:05:10.627Z,1001.11
2017-01-12T00:05:51.171Z,1001.1
2017-01-12T00:06:31.698Z,1001.09
2017-01-12T00:07:12.229Z,1001.12
2017-01-12T00:07:52.758Z,1001.1
2017-01-12T00:08:33.251Z,1001.15
2017-01-12T00:09:13.852Z,1001.16
2017-01-12T00:09:54.369Z,1001.2
2017-01-12T00:10:34.885Z,1001.18
2017-01-12T00:11:15.402Z,1001.25
2017-01-12T00:11:56.015Z,1001.24
2017-01-12T00:12:36.514Z,1001.25
2017-01-12T00:13:17.028Z,1001.33
2017-01-12T00:13:57.573Z,1001.34
2017-01-12T00:14:38.095Z,1001.33
2017-01-12T00:15:18.626Z,1001.3
2017-01-12T00:15:59.165Z,1001.3
2017-01-12T00:16:39.724Z,1001.29
2017-01-12T00:17:20.237Z,1001.37
2017-01-12T00:18:00.745Z,1001.33
2017-01-12T00:20:15.688Z,1001.4
2017-01-12T00:20:56.077Z,1001.45
2017-01-12T00:21:36.608Z,1001.43
2017-01-12T00:22:17.123Z,1001.46
2017-01-12T00:22:57.680Z,1001.44
2017-01-12T00:23:38.256Z,1001.44
2017-01-12T00:24:18.768Z,1001.44
2017-01-12T00:24:59.327Z,1001.38
2017-01-12T00:25:39.777Z,1001.41
2017-01-12T00:26:20.323Z,1001.42
2017-01-12T00:27:00.880Z,1001.47
2017-01-12T00:27:41.418Z,1001.4
2017-01-12T00:28:21.966Z,1001.41
2017-01-12T00:29:02.474Z,1001.43
2017-01-12T00:29:43.002Z,1001.44
2017-01-12T00:30:23.519Z,1001.41
2017-01-12T00:31:04.053Z,1001.46
2017-01-12T00:31:44.552Z,1001.47
2017-01-12T00:32:25.096Z,1001.47
2017-01-12T00:33:05.635Z,1001.51
2017-01-12T00:33:46.166Z,1001.51
2017-01-12T00:34:26.662Z,1001.53
2017-01-12T00:35:07.215Z,1001.48
2017-01-12T00:35:47.766Z,1001.51
2017-01-12T00:36:28.230Z,1001.49
2017-01-12T00:37:08.801Z,1001.53
2017-01-12T00:37:49.329Z,1001.49
2017-01-12T00:38:29.826Z,1001.49
2017-01-12T00:39:10.378Z,1001.56
2017-01-12T00:39:50.913Z,1001.59
2017-01-12T00:40:31.478Z,1001.62
2017-01-12T00:41:12.101Z,1001.6
2017-01-12T00:41:52.546Z,1001.66
2017-01-12T00:42:33.128Z,1001.61
2017-01-12T00:43:13.691Z,1001.6
2017-01-12T00:43:54.166Z,1001.6
2017-01-12T00:44:34.685Z,1001.6
2017-01-12T00:45:15.218Z,1001.62
2017-01-12T00:45:55.773Z,1001.62
2017-01-12T00:46:36.227Z,1001.64
2017-01-12T00:47:16.795Z,1001.67
2017-01-12T00:47:57.342Z,1001.67
2017-01-12T00:48:37.863Z,1001.62
2017-01-12T00:49:18.387Z,1001.63
2017-01-12T00:49:58.941Z,1001.73
2017-01-12T00:50:39.502Z,1001.7
2017-01-12T00:51:20.050Z,1001.69
2017-01-12T00:52:00.568Z,1001.71
2017-01-12T00:52:41.071Z,1001.7
2017-01-12T00:53:21.617Z,1001.68
2017-01-12T00:54:02.133Z,1001.71
2017-01-12T00:54:42.691Z,1001.65
2017-01-12T00:55:23.225Z,1001.62
2017-01-12T00:56:03.731Z,1001.66
2017-01-12T00:56:44.282Z,1001.63
2017-01-12T00:57:24.856Z,1001.64
2017-01-12T00:58:05.358Z,1001.63
2017-01-12T00:58:45.889Z,1001.6
2017-01-12T00:59:26.425Z,1001.63
2017-01-12T01:00:06.951Z,1001.59
2017-01-12T01:00:47.494Z,1001.59
2017-01-12T01:01:27.962Z,1001.57
2017-01-12T01:02:08.503Z,1001.62
2017-01-12T01:02:49.020Z,1001.59
2017-01-12T01:03:29.540Z,1001.57
2017-01-12T01:04:10.130Z,1001.63
2017-01-12T01:04:50.626Z,1001.6
2017-01-12T01:05:31.153Z,1001.62
2017-01-12T01:06:11.733Z,1001.63
2017-01-12T01:06:52.220Z,1001.7
2017-01-12T01:07:32.749Z,1001.67
2017-01-12T01:08:13.306Z,1001.67
2017-01-12T01:08:53.839Z,1001.66
2017-01-12T01:09:34.439Z,1001.64
2017-01-12T01:10:14.952Z,1001.71
2017-01-12T01:10:55.452Z,1001.77
2017-01-12T01:11:35.983Z,1001.78
2017-01-12T01:12:16.541Z,1001.73
2017-01-12T01:12:57.045Z,1001.69
2017-01-12T01:13:37.580Z,1001.69
2017-01-12T01:14:18.145Z,1001.71
2017-01-12T01:14:58.683Z,1001.7
2017-01-12T01:15:39.204Z,1001.73
2017-01-12T01:19:26.886Z,1001.8
2017-01-12T01:20:07.399Z,1001.84
2017-01-12T01:20:47.940Z,1001.82
2017-01-12T01:21:28.494Z,1001.86
2017-01-12T01:22:09.037Z,1001.84
2017-01-12T01:22:49.587Z,1001.86
2017-01-12T01:23:30.112Z,1001.87
2017-01-12T01:24:10.654Z,1001.88
2017-01-12T01:24:51.174Z,1001.88
2017-01-12T01:25:31.727Z,1001.88
2017-01-12T01:26:12.220Z,1001.89
2017-01-12T01:26:52.856Z,1001.96
2017-01-12T01:27:33.390Z,1001.87
2017-01-12T01:28:13.923Z,1001.93
2017-01-12T01:28:54.518Z,1001.92
2017-01-12T01:29:35.062Z,1001.93
2017-01-12T01:30:15.670Z,1001.94
2017-01-12T01:30:56.204Z,1002.01
2017-01-12T01:31:36.719Z,1002.01
2017-01-12T01:32:17.223Z,1002.01
2017-01-12T01:32:57.781Z,1002.08
2017-01-12T01:33:38.288Z,1002.07
2017-01-12T01:34:18.842Z,1002.15
2017-01-12T01:34:59.375Z,1002.11
2017-01-12T01:35:39.969Z,1002.09
2017-01-12T01:36:20.506Z,1002.11
2017-01-12T01:37:01.076Z,1002.1
2017-01-12T01:37:41.591Z,1002.12
2017-01-12T01:38:22.180Z,1002.11
2017-01-12T01:39:02.707Z,1002.17
2017-01-12T01:39:43.230Z,1002.13
2017-01-12T01:40:23.765Z,1002.16
2017-01-12T01:41:04.327Z,1002.16
2017-01-12T01:41:44.912Z,1002.2
2017-01-12T01:42:25.463Z,1002.14
2017-01-12T01:43:06.028Z,1002.13
2017-01-12T01:43:46.585Z,1002.17
2017-01-12T01:44:27.149Z,1002.11
2017-01-12T01:45:07.705Z,1002.13
2017-01-12T01:45:48.261Z,1002.16
2017-01-12T01:46:28.781Z,1002.16
2017-01-12T01:47:09.333Z,1002.18
2017-01-12T01:47:49.890Z,1002.19
2017-01-12T01:48:30.485Z,1002.26
2017-01-12T01:49:11.050Z,1002.26
2017-01-12T01:49:51.596Z,1002.31
2017-01-12T01:50:32.103Z,1002.25
2017-01-12T01:51:12.662Z,1002.33
2017-01-12T01:51:53.199Z,1002.31
2017-01-12T01:52:33.762Z,1002.29
2017-01-12T01:53:14.252Z,1002.28
2017-01-12T01:53:54.811Z,1002.31
2017-01-12T01:54:35.402Z,1002.33
2017-01-12T01:55:15.948Z,1002.28
2017-01-12T01:55:56.480Z,1002.25
2017-01-12T01:56:37.027Z,1002.3
2017-01-12T01:57:17.566Z,1002.26
2017-01-12T01:57:58.133Z,1002.28
2017-01-12T01:58:38.740Z,1002.33
2017-01-12T01:59:19.269Z,1002.28
2017-01-12T01:59:59.796Z,1002.28
2017-01-12T02:00:42.185Z,1002.28
2017-01-12T02:01:22.770Z,1002.3
2017-01-12T02:02:03.321Z,1002.34
2017-01-12T02:02:43.849Z,1002.31
2017-01-12T02:03:24.408Z,1002.31
2017-01-12T02:04:05.007Z,1002.31
2017-01-12T02:04:45.555Z,1002.34
2017-01-12T02:05:26.067Z,1002.32
2017-01-12T02:06:06.603Z,1002.39
2017-01-12T02:06:47.160Z,1002.36
2017-01-12T02:07:27.785Z,1002.35
2017-01-12T02:08:08.318Z,1002.29
2017-01-12T02:08:48.901Z,1002.25
2017-01-12T02:09:29.458Z,1002.3
2017-01-12T02:10:09.987Z,1002.21
2017-01-12T02:10:50.523Z,1002.22
2017-01-12T02:11:31.096Z,1002.23
2017-01-12T02:12:11.651Z,1002.2
2017-01-12T02:12:52.191Z,1002.2
2017-01-12T02:13:32.723Z,1002.2
2017-01-12T02:17:19.034Z,1002.29
2017-01-12T02:17:59.988Z,1002.34
2017-01-12T02:18:40.510Z,1002.33
2017-01-12T02:19:21.066Z,1002.35
2017-01-12T02:20:01.583Z,1002.32
2017-01-12T02:20:42.086Z,1002.29
2017-01-12T02:21:22.623Z,1002.34
2017-01-12T02:22:03.160Z,1002.3
2017-01-12T02:22:43.657Z,1002.39
2017-01-12T02:23:24.194Z,1002.38
2017-01-12T02:24:04.732Z,1002.42
2017-01-12T02:24:45.209Z,1002.43
2017-01-12T02:25:25.694Z,1002.4
2017-01-12T02:26:06.248Z,1002.43
2017-01-12T02:26:46.773Z,1002.37
2017-01-12T02:27:27.317Z,1002.39
2017-01-12T02:28:07.819Z,1002.38
2017-01-12T02:28:48.390Z,1002.39
2017-01-12T02:29:28.854Z,1002.37
2017-01-12T02:30:09.374Z,1002.37
2017-01-12T02:30:49.923Z,1002.36
2017-01-12T02:31:30.410Z,1002.39
2017-01-12T02:32:10.959Z,1002.32
2017-01-12T02:32:51.467Z,1002.32
2017-01-12T02:33:32.003Z,1002.35
2017-01-12T02:34:12.581Z,1002.3
2017-01-12T02:34:53.104Z,1002.38
2017-01-12T02:35:33.626Z,1002.38
2017-01-12T02:36:14.199Z,1002.44
2017-01-12T02:36:54.698Z,1002.42
2017-01-12T02:37:35.194Z,1002.39
2017-01-12T02:38:15.751Z,1002.41
2017-01-12T02:38:56.265Z,1002.33
2017-01-12T02:39:36.789Z,1002.37
2017-01-12T02:40:17.318Z,1002.31
2017-01-12T02:40:57.838Z,1002.33
2017-01-12T02:41:38.362Z,1002.36
2017-01-12T02:42:18.873Z,1002.33
2017-01-12T02:42:59.420Z,1002.37
2017-01-12T02:43:39.977Z,1002.35
2017-01-12T02:44:20.508Z,1002.33
2017-01-12T02:45:01.033Z,1002.36
2017-01-12T02:45:41.588Z,1002.38
2017-01-12T02:46:22.115Z,1002.34
2017-01-12T02:47:02.671Z,1002.37
2017-01-12T02:47:43.197Z,1002.4
2017-01-12T02:48:23.705Z,1002.41
2017-01-12T02:49:04.259Z,1002.42
2017-01-12T02:49:44.758Z,1002.42
2017-01-12T02:50:25.303Z,1002.42
2017-01-12T02:51:05.809Z,1002.46
2017-01-12T02:51:46.339Z,1002.44
2017-01-12T02:52:26.881Z,1002.42
2017-01-12T02:53:07.424Z,1002.39
2017-01-12T02:53:47.967Z,1002.35
2017-01-12T02:54:28.497Z,1002.33
2017-01-12T02:55:09.039Z,1002.29
2017-01-12T02:55:49.580Z,1002.27
2017-01-12T02:56:30.143Z,1002.29
2017-01-12T02:57:10.680Z,1002.28
2017-01-12T02:57:51.191Z,1002.27
2017-01-12T02:58:31.727Z,1002.35
2017-01-12T02:59:12.293Z,1002.39
2017-01-12T02:59:52.802Z,1002.33
2017-01-12T03:00:33.388Z,1002.38
2017-01-12T03:01:13.925Z,1002.38
2017-01-12T03:01:54.476Z,1002.32
2017-01-12T03:02:35.061Z,1002.29
2017-01-12T03:03:15.615Z,1002.31
2017-01-12T03:03:56.206Z,1002.28
2017-01-12T03:04:36.705Z,1002.34
2017-01-12T03:05:17.241Z,1002.4
2017-01-12T03:05:57.791Z,1002.34
2017-01-12T03:06:38.316Z,1002.37
2017-01-12T03:07:18.881Z,1002.36
2017-01-12T03:07:59.416Z,1002.42
2017-01-12T03:08:39.918Z,1002.32
2017-01-12T03:09:20.472Z,1002.35
2017-01-12T03:10:01.023Z,1002.34
2017-01-12T03:10:41.544Z,1002.31
2017-01-12T03:11:22.062Z,1002.28
2017-01-12T03:12:02.600Z,1002.35
2017-01-12T03:12:43.176Z,1002.31
2017-01-12T03:13:23.713Z,1002.31
2017-01-12T03:14:04.284Z,1002.29
2017-01-12T03:14:44.800Z,1002.26
2017-01-12T03:15:25.354Z,1002.25
2017-01-12T03:16:05.866Z,1002.19
2017-01-12T03:16:46.382Z,1002.18
2017-01-12T03:17:26.907Z,1002.16
2017-01-12T03:18:07.433Z,1002.13
2017-01-12T03:18:47.952Z,1002.11
2017-01-12T03:19:28.472Z,1002.14
2017-01-12T03:20:09.029Z,1002.15
2017-01-12T03:20:49.560Z,1002.15
2017-01-12T03:21:30.098Z,1002.16
2017-01-12T03:22:10.651Z,1002.09
2017-01-12T03:22:51.200Z,1002.09
2017-01-12T03:23:31.770Z,1002.08
2017-01-12T03:24:12.293Z,1002.1
2017-01-12T03:24:52.824Z,1002.1
2017-01-12T03:25:33.376Z,1002.07
2017-01-12T03:26:13.866Z,1002.07
2017-01-12T03:26:54.391Z,1002.06
2017-01-12T03:27:34.968Z,1002.05
2017-01-12T03:28:15.533Z,1002.01
2017-01-12T03:28:56.065Z,1002.07
2017-01-12T03:29:36.594Z,1002.05
2017-01-12T03:30:17.154Z,1002.08
2017-01-12T03:30:57.690Z,1002.08
2017-01-12T03:31:38.245Z,1002.02
2017-01-12T03:32:18.754Z,1002.03
2017-01-12T03:32:59.303Z,1002.07
2017-01-12T03:33:39.847Z,1002.1
2017-01-12T03:34:20.379Z,1002.09
2017-01-12T03:35:00.967Z,1002.09
2017-01-12T03:35:41.486Z,1002.06
2017-01-12T03:36:21.997Z,1002.1
2017-01-12T03:37:02.606Z,1002.08
2017-01-12T03:37:43.159Z,1002.1
2017-01-12T03:38:23.664Z,1002.05
2017-01-12T03:39:04.192Z,1002.09
2017-01-12T03:39:44.705Z,1002.03
2017-01-12T03:40:25.284Z,1002.05
2017-01-12T03:41:05.809Z,1002.01
2017-01-12T03:41:46.355Z,1001.96
2017-01-12T03:42:26.845Z,1001.95
2017-01-12T03:43:07.439Z,1001.94
2017-01-12T03:43:47.959Z,1001.92
2017-01-12T03:44:28.529Z,1001.92
2017-01-12T03:45:09.025Z,1001.87
2017-01-12T03:45:49.603Z,1001.87
2017-01-12T03:46:30.230Z,1001.9
2017-01-12T03:47:10.744Z,1001.98
2017-01-12T03:47:51.244Z,1001.94
2017-01-12T03:48:31.786Z,1001.96
2017-01-12T03:49:12.321Z,1002.03
2017-01-12T03:49:52.856Z,1002.02
2017-01-12T03:50:33.420Z,1002.08
2017-01-12T03:51:13.918Z,1002.06
2017-01-12T03:51:54.428Z,1002.05
2017-01-12T03:52:34.985Z,1002.08
2017-01-12T03:53:15.516Z,1002.06
2017-01-12T03:53:56.083Z,1002.03
2017-01-12T03:54:36.605Z,1002.09
2017-01-12T03:55:17.109Z,1002.03
2017-01-12T03:55:57.640Z,1002.09
2017-01-12T03:56:38.167Z,1002.11
2017-01-12T03:57:18.704Z,1002.1
2017-01-12T03:57:59.256Z,1002.1
2017-01-12T03:58:39.741Z,1002.1
2017-01-12T03:59:20.276Z,1002.15
2017-01-12T04:00:00.819Z,1002.11
2017-01-12T04:00:41.389Z,1002.11
2017-01-12T04:01:21.891Z,1002.1
2017-01-12T04:02:02.432Z,1002.15
2017-01-12T04:02:42.972Z,1002.08
2017-01-12T04:03:23.479Z,1002.11
2017-01-12T04:04:04.069Z,1002.09
2017-01-12T04:04:44.570Z,1002.12
2017-01-12T04:05:25.128Z,1002.18
2017-01-12T04:06:05.650Z,1002.2
2017-01-12T04:06:46.230Z,1002.15
2017-01-12T04:07:26.740Z,1002.18
2017-01-12T04:08:07.316Z,1002.13
2017-01-12T04:08:47.810Z,1002.07
2017-01-12T04:09:28.357Z,1002.13
2017-01-12T04:10:08.894Z,1002.18
2017-01-12T04:10:49.443Z,1002.18
2017-01-12T04:11:29.986Z,1002.17
2017-01-12T04:12:10.542Z,1002.2
2017-01-12T04:12:51.070Z,1002.2
2017-01-12T04:13:31.577Z,1002.19
2017-01-12T04:14:12.142Z,1002.16
2017-01-12T04:14:52.813Z,1002.19
2017-01-12T04:15:33.219Z,1002.26
2017-01-12T04:16:13.786Z,1002.24
2017-01-12T04:16:54.275Z,1002.25
2017-01-12T04:17:34.832Z,1002.24
2017-01-12T04:18:15.369Z,1002.28
2017-01-12T04:18:55.935Z,1002.27
2017-01-12T04:19:36.466Z,1002.3
2017-01-12T04:20:16.972Z,1002.28
2017-01-12T04:20:57.490Z,1002.31
2017-01-12T04:21:38.034Z,1002.4
2017-01-12T04:22:18.537Z,1002.39
2017-01-12T04:22:59.060Z,1002.38
2017-01-12T04:23:39.586Z,1002.42
2017-01-12T04:24:20.156Z,1002.37
2017-01-12T04:25:00.676Z,1002.32
2017-01-12T04:25:41.194Z,1002.3
2017-01-12T04:26:21.729Z,1002.36
2017-01-12T04:27:02.277Z,1002.36
2017-01-12T04:27:42.774Z,1002.34
2017-01-12T04:28:23.299Z,1002.34
2017-01-12T04:29:03.867Z,1002.3
2017-01-12T04:29:44.395Z,1002.36
2017-01-12T04:30:24.934Z,1002.27
2017-01-12T04:31:05.439Z,1002.26
2017-01-12T04:31:45.980Z,1002.22
2017-01-12T04:32:26.503Z,1002.21
2017-01-12T04:33:06.990Z,1002.2
2017-01-12T04:33:47.544Z,1002.25
2017-01-12T04:34:28.074Z,1002.15
2017-01-12T04:35:08.696Z,1002.17
2017-01-12T04:35:49.248Z,1002.2
2017-01-12T04:36:29.733Z,1002.13
2017-01-12T04:37:10.290Z,1002.17
2017-01-12T04:37:50.881Z,1002.16
2017-01-12T04:38:31.382Z,1002.13
2017-01-12T04:39:11.965Z,1002.15
2017-01-12T04:39:52.466Z,1002.11
2017-01-12T04:40:32.993Z,1002.13
2017-01-12T04:41:13.563Z,1002.15
2017-01-12T04:41:54.067Z,1002.14
2017-01-12T04:42:34.578Z,1002.09
2017-01-12T04:43:15.082Z,1002.15
2017-01-12T04:43:55.608Z,1002.14
2017-01-12T04:44:36.137Z,1002.12
2017-01-12T04:45:16.698Z,1002.17
2017-01-12T04:45:57.223Z,1002.15
2017-01-12T04:46:37.767Z,1002.1
2017-01-12T04:47:18.300Z,1002.17
2017-01-12T04:47:58.861Z,1002.11
2017-01-12T04:48:39.375Z,1002.12
2017-01-12T04:49:19.953Z,1002.11
2017-01-12T04:50:00.489Z,1002.14
2017-01-12T04:50:40.990Z,1002.14
2017-01-12T04:51:21.524Z,1002.11
2017-01-12T04:52:02.051Z,1002.13
2017-01-12T04:52:42.565Z,1002.1
2017-01-12T04:53:23.099Z,1002.18
2017-01-12T04:54:03.646Z,1002.15
2017-01-12T04:54:44.153Z,1002.15
2017-01-12T04:55:24.713Z,1002.17
2017-01-12T04:56:05.219Z,1002.2
2017-01-12T04:56:45.758Z,1002.23
2017-01-12T04:57:26.275Z,1002.23
2017-01-12T04:58:06.830Z,1002.27
2017-01-12T04:58:47.318Z,1002.32
2017-01-12T04:59:27.915Z,1002.28
2017-01-12T05:00:08.412Z,1002.33
2017-01-12T05:00:48.972Z,1002.28
2017-01-12T05:01:29.487Z,1002.35
2017-01-12T05:02:10.024Z,1002.33
2017-01-12T05:02:50.566Z,1002.37
2017-01-12T05:03:31.123Z,1002.37
2017-01-12T05:04:11.625Z,1002.36
2017-01-12T05:04:52.196Z,1002.34
2017-01-12T05:05:32.726Z,1002.36
2017-01-12T05:06:13.258Z,1002.34
2017-01-12T05:06:53.791Z,1002.37
2017-01-12T05:07:34.313Z,1002.35
2017-01-12T05:08:14.874Z,1002.31
2017-01-12T05:08:55.382Z,1002.31
2017-01-12T05:09:35.923Z,1002.32
2017-01-12T05:10:16.437Z,1002.37
2017-01-12T05:10:56.996Z,1002.35
2017-01-12T05:11:37.551Z,1002.37
2017-01-12T05:12:18.076Z,1002.4
2017-01-12T05:12:58.618Z,1002.35
2017-01-12T05:13:39.184Z,1002.35
2017-01-12T05:14:19.734Z,1002.36
2017-01-12T05:15:00.254Z,1002.34
2017-01-12T05:15:40.796Z,1002.32
2017-01-12T05:16:21.313Z,1002.35
2017-01-12T05:17:01.829Z,1002.33
2017-01-12T05:17:42.400Z,1002.34
2017-01-12T05:18:22.935Z,1002.36
2017-01-12T05:19:03.494Z,1002.32
2017-01-12T05:19:44.009Z,1002.32
2017-01-12T05:20:24.593Z,1002.31
2017-01-12T05:21:05.110Z,1002.29
2017-01-12T05:21:45.677Z,1002.25
2017-01-12T05:22:26.219Z,1002.24
2017-01-12T05:23:06.753Z,1002.25
2017-01-12T05:23:47.286Z,1002.2
2017-01-12T05:24:27.810Z,1002.24
2017-01-12T05:25:08.355Z,1002.23
2017-01-12T05:25:48.923Z,1002.27
2017-01-12T05:26:29.457Z,1002.25
2017-01-12T05:27:09.995Z,1002.25
2017-01-12T05:27:50.512Z,1002.28
2017-01-12T05:28:31.104Z,1002.25
2017-01-12T05:29:11.629Z,1002.33
2017-01-12T05:29:52.130Z,1002.25
2017-01-12T05:30:32.688Z,1002.28
2017-01-12T05:31:13.261Z,1002.28
2017-01-12T05:31:53.839Z,1002.34
2017-01-12T05:32:34.343Z,1002.27
2017-01-12T05:33:14.889Z,1002.36
2017-01-12T05:33:55.446Z,1002.4
2017-01-12T05:34:35.960Z,1002.45
2017-01-12T05:35:16.493Z,1002.45
2017-01-12T05:35:56.995Z,1002.46
2017-01-12T05:36:37.554Z,1002.5
2017-01-12T05:37:18.076Z,1002.47
2017-01-12T05:37:58.627Z,1002.5
2017-01-12T05:38:39.137Z,1002.56
2017-01-12T05:39:19.651Z,1002.59
2017-01-12T05:40:00.191Z,1002.53
2017-01-12T05:40:40.721Z,1002.58
2017-01-12T05:41:21.203Z,1002.59
2017-01-12T05:42:01.818Z,1002.61
2017-01-12T05:42:42.338Z,1002.65
2017-01-12T05:43:22.897Z,1002.62
2017-01-12T05:44:03.393Z,1002.62
2017-01-12T05:44:43.930Z,1002.58
2017-01-12T05:45:24.490Z,1002.57
2017-01-12T05:46:04.983Z,1002.56
2017-01-12T05:46:45.540Z,1002.58
2017-01-12T05:47:26.095Z,1002.6
2017-01-12T05:48:06.590Z,1002.54
2017-01-12T05:48:47.155Z,1002.6
2017-01-12T05:49:27.653Z,1002.6
2017-01-12T05:50:08.165Z,1002.6
2017-01-12T05:50:48.680Z,1002.67
2017-01-12T05:51:29.203Z,1002.63
2017-01-12T05:52:09.770Z,1002.65
2017-01-12T05:52:50.288Z,1002.67
2017-01-12T05:53:30.874Z,1002.62
2017-01-12T05:54:11.403Z,1002.66
2017-01-12T05:54:51.905Z,1002.65
2017-01-12T05:55:32.454Z,1002.64
2017-01-12T05:56:12.997Z,1002.61
2017-01-12T05:56:53.536Z,1002.65
2017-01-12T05:57:34.074Z,1002.65
2017-01-12T05:58:14.606Z,1002.67
2017-01-12T05:58:55.149Z,1002.65
2017-01-12T05:59:35.688Z,1002.67
2017-01-12T06:00:16.232Z,1002.65
2017-01-12T06:00:56.814Z,1002.74
2017-01-12T06:01:37.349Z,1002.77
2017-01-12T06:02:17.879Z,1002.77
2017-01-12T06:02:58.430Z,1002.8
2017-01-12T06:03:38.950Z,1002.77
2017-01-12T06:04:19.502Z,1002.76
2017-01-12T06:05:00.013Z,1002.73
2017-01-12T06:05:40.572Z,1002.76
2017-01-12T06:06:21.120Z,1002.78
2017-01-12T06:07:01.598Z,1002.74
2017-01-12T06:07:42.141Z,1002.72
2017-01-12T06:08:22.703Z,1002.79
2017-01-12T06:09:04.260Z,1002.72
2017-01-12T06:09:44.501Z,1002.7
2017-01-12T06:10:25.029Z,1002.74
2017-01-12T06:11:05.529Z,1002.69
2017-01-12T06:11:46.090Z,1002.72
2017-01-12T06:12:26.615Z,1002.67
2017-01-12T06:13:07.167Z,1002.69
2017-01-12T06:13:47.709Z,1002.69
2017-01-12T06:14:28.239Z,1002.69
2017-01-12T06:15:08.733Z,1002.71
2017-01-12T06:15:49.293Z,1002.67
2017-01-12T06:16:29.825Z,1002.67
2017-01-12T06:17:10.387Z,1002.73
2017-01-12T06:17:50.939Z,1002.64
2017-01-12T06:18:31.465Z,1002.63
2017-01-12T06:19:12.008Z,1002.71
2017-01-12T06:19:52.573Z,1002.62
2017-01-12T06:20:33.098Z,1002.66
2017-01-12T06:21:14.424Z,1002.68
2017-01-12T06:21:54.975Z,1002.61
2017-01-12T06:22:35.510Z,1002.62
2017-01-12T06:23:16.047Z,1002.64
2017-01-12T06:23:56.580Z,1002.67
2017-01-12T06:24:37.088Z,1002.64
2017-01-12T06:25:17.688Z,1002.62
2017-01-12T06:25:58.216Z,1002.69
2017-01-12T06:26:38.754Z,1002.61
2017-01-12T06:27:19.260Z,1002.7
2017-01-12T06:27:59.828Z,1002.69
2017-01-12T06:28:40.325Z,1002.68
2017-01-12T06:29:20.892Z,1002.7
2017-01-12T06:30:01.399Z,1002.64
2017-01-12T06:30:41.902Z,1002.7
2017-01-12T06:31:22.524Z,1002.63
2017-01-12T06:32:03.074Z,1002.7
2017-01-12T06:32:43.605Z,1002.74
2017-01-12T06:33:24.129Z,1002.7
2017-01-12T06:34:04.656Z,1002.72
2017-01-12T06:34:45.182Z,1002.69
2017-01-12T06:35:25.729Z,1002.73
2017-01-12T06:36:06.245Z,1002.67
2017-01-12T06:36:46.751Z,1002.72
2017-01-12T06:37:27.310Z,1002.67
2017-01-12T06:38:07.849Z,1002.68
2017-01-12T06:38:48.377Z,1002.66
2017-01-12T06:39:28.968Z,1002.75
2017-01-12T06:40:09.513Z,1002.72
2017-01-12T06:40:49.998Z,1002.7
2017-01-12T06:41:31.918Z,1002.74
2017-01-12T06:42:13.415Z,1002.77
2017-01-12T06:42:53.995Z,1002.73
2017-01-12T06:43:34.574Z,1002.69
2017-01-12T06:44:15.121Z,1002.74
2017-01-12T06:44:55.634Z,1002.76
2017-01-12T06:45:36.157Z,1002.76
2017-01-12T06:46:16.725Z,1002.78
2017-01-12T06:46:57.215Z,1002.77
2017-01-12T06:47:37.762Z,1002.82
2017-01-12T06:48:18.248Z,1002.8
2017-01-12T06:48:58.799Z,1002.8
2017-01-12T06:49:39.359Z,1002.75
2017-01-12T06:50:19.885Z,1002.78
2017-01-12T06:51:00.490Z,1002.81
2017-01-12T06:51:41.002Z,1002.84
2017-01-12T06:52:21.548Z,1002.78
2017-01-12T06:53:02.069Z,1002.78
2017-01-12T06:53:42.627Z,1002.78
2017-01-12T06:54:23.174Z,1002.78
2017-01-12T06:55:03.710Z,1002.8
2017-01-12T06:55:44.305Z,1002.74
2017-01-12T06:56:24.794Z,1002.7
2017-01-12T06:57:05.303Z,1002.72
2017-01-12T06:57:45.853Z,1002.69
2017-01-12T06:58:26.328Z,1002.71
2017-01-12T06:59:06.871Z,1002.72
2017-01-12T06:59:47.384Z,1002.71
2017-01-12T07:00:27.917Z,1002.72
2017-01-12T07:01:08.413Z,1002.75
2017-01-12T07:03:21.691Z,1002.79
2017-01-12T07:04:03.166Z,1002.76
2017-01-12T07:04:43.724Z,1002.81
2017-01-12T07:05:24.286Z,1002.73
2017-01-12T07:06:05.060Z,1002.65
2017-01-12T07:06:45.659Z,1002.64
2017-01-12T07:07:26.177Z,1002.61
2017-01-12T07:08:06.781Z,1002.59
2017-01-12T07:08:47.327Z,1002.54
2017-01-12T07:09:27.848Z,1002.48
2017-01-12T07:10:08.389Z,1002.52
2017-01-12T07:10:48.897Z,1002.44
2017-01-12T07:11:29.467Z,1002.5
2017-01-12T07:12:10.005Z,1002.4
2017-01-12T07:12:50.588Z,1002.37
2017-01-12T07:13:31.145Z,1002.3
2017-01-12T07:14:11.683Z,1002.43
2017-01-12T07:14:52.197Z,1002.44
2017-01-12T07:15:32.722Z,1002.43
2017-01-12T07:16:13.322Z,1002.42
2017-01-12T07:16:53.885Z,1002.41
2017-01-12T07:17:34.440Z,1002.4
2017-01-12T07:18:14.999Z,1002.39
2017-01-12T07:18:55.556Z,1002.42
2017-01-12T07:19:36.081Z,1002.44
2017-01-12T07:20:16.633Z,1002.39
2017-01-12T07:20:57.328Z,1002.39
2017-01-12T07:21:37.804Z,1002.42
2017-01-12T07:22:18.237Z,1002.44
2017-01-12T07:22:59.146Z,1002.41
2017-01-12T07:23:40.007Z,1002.47
2017-01-12T07:24:20.451Z,1002.43
2017-01-12T07:25:01.217Z,1002.47
2017-01-12T07:25:41.883Z,1002.52
2017-01-12T07:26:22.496Z,1002.54
2017-01-12T07:27:03.081Z,1002.54
2017-01-12T07:27:43.560Z,1002.51
2017-01-12T07:28:24.171Z,1002.54
2017-01-12T07:29:04.819Z,1002.56
2017-01-12T07:29:45.665Z,1002.59
2017-01-12T07:30:26.304Z,1002.53
2017-01-12T07:31:06.885Z,1002.61
2017-01-12T07:31:47.523Z,1002.58
2017-01-12T07:32:28.224Z,1002.62
2017-01-12T07:33:08.698Z,1002.61
2017-01-12T07:33:49.240Z,1002.61
2017-01-12T07:34:29.817Z,1002.62
2017-01-12T07:35:10.328Z,1002.63
2017-01-12T07:35:50.891Z,1002.64
2017-01-12T07:36:31.965Z,1002.62
2017-01-12T07:37:12.623Z,1002.6
2017-01-12T07:37:54.293Z,1002.6
2017-01-12T07:38:34.900Z,1002.62
2017-01-12T07:39:15.528Z,1002.57
2017-01-12T07:39:56.022Z,1002.6
2017-01-12T07:40:36.598Z,1002.69
2017-01-12T07:41:17.218Z,1002.63
2017-01-12T07:41:57.768Z,1002.62
2017-01-12T07:42:38.337Z,1002.67
2017-01-12T07:43:18.893Z,1002.65
2017-01-12T07:43:59.384Z,1002.66
2017-01-12T07:44:40.332Z,1002.64
2017-01-12T07:45:21.042Z,1002.69
2017-01-12T07:46:01.646Z,1002.72
2017-01-12T07:46:42.300Z,1002.77
2017-01-12T07:47:23.002Z,1002.71
2017-01-12T07:48:03.631Z,1002.78
2017-01-12T07:48:44.173Z,1002.79
2017-01-12T07:49:24.996Z,1002.77
2017-01-12T07:50:05.686Z,1002.79
2017-01-12T07:50:46.247Z,1002.77
2017-01-12T07:51:26.937Z,1002.83
2017-01-12T07:52:07.643Z,1002.81
2017-01-12T07:52:48.421Z,1002.82
2017-01-12T07:53:29.017Z,1002.77
2017-01-12T07:54:09.648Z,1002.79
2017-01-12T07:54:50.208Z,1002.81
2017-01-12T07:55:30.765Z,1002.82
2017-01-12T07:56:11.282Z,1002.77
2017-01-12T07:56:51.947Z,1002.79
2017-01-12T07:57:32.418Z,1002.8
2017-01-12T07:58:12.994Z,1002.8
2017-01-12T07:58:53.533Z,1002.79
2017-01-12T07:59:34.071Z,1002.79
2017-01-12T08:00:14.663Z,1002.8
2017-01-12T08:00:55.160Z,1002.8
2017-01-12T08:01:35.715Z,1002.83
2017-01-12T08:02:16.236Z,1002.83
2017-01-12T08:02:56.812Z,1002.84
2017-01-12T08:03:37.332Z,1002.83
2017-01-12T08:04:17.844Z,1002.82
2017-01-12T08:04:58.404Z,1002.82
2017-01-12T08:05:38.937Z,1002.82
2017-01-12T08:06:19.505Z,1002.8
2017-01-12T08:07:00.021Z,1002.83
2017-01-12T08:07:40.573Z,1002.8
2017-01-12T08:08:21.097Z,1002.85
2017-01-12T08:09:01.650Z,1002.82
2017-01-12T08:09:42.159Z,1002.76
2017-01-12T08:10:22.732Z,1002.85
2017-01-12T08:11:03.251Z,1002.88
2017-01-12T08:11:43.849Z,1002.85
2017-01-12T08:12:24.639Z,1002.79
2017-01-12T08:13:05.726Z,1002.84
2017-01-12T08:13:46.295Z,1002.81
2017-01-12T08:14:26.880Z,1002.86
2017-01-12T08:15:07.409Z,1002.86
2017-01-12T08:15:47.982Z,1002.87
2017-01-12T08:16:28.472Z,1002.83
2017-01-12T08:17:09.063Z,1002.85
2017-01-12T08:17:49.645Z,1002.9
2017-01-12T08:18:30.153Z,1002.94
2017-01-12T08:19:10.772Z,1002.93
2017-01-12T08:19:51.286Z,1002.96
2017-01-12T08:20:31.832Z,1003.05
2017-01-12T08:21:12.294Z,1002.96
2017-01-12T08:21:52.868Z,1002.97